Flint, Texas
Current Conditions -  °F | °C
As of 5:53 PM on Friday 19 Dec 2014 (Local Time) from KTYR Reporting Station
Haze Haze  
Wind Chill: 43°   Ceiling: 300
Heat Index: 47°   Visibility: 2.5mi
Dew Point: 45°   Wind: 8mph
Humidity: 93%   Direction: 40°NE
Pressure: 30.15"   Gusts: NA
Location:  32.2°N, 95.35°W
Report Text: KTYR 192353Z 04007KT 2 1/2SM BR OVC003 08/07 A3015 RMK AO2 SLP208 T00830072 10106 20083 51014
Loading
Personal Weather Stations






























Interactive Weather Map New forecast layout! Learn more

10-Day Weather Forecast

Advertisements
Track Severe Weather on mobile